Time;durP1;ratioP1;P1;durP2;ratioP2;P2;SDS_P1;SDS_P2;PMS_P1;PMS_P2;Temp;Humidity;BMP_temperature;BMP_pressure;BME280_temperature;BME280_humidity;BME280_pressure;Samples;Min_cycle;Max_cycle;Signal;HPM_P1;HPM_P2
2022/04/22 00:01:55;;;;;;;14.70;9.50;;;;;;;;;;4877101;29;20037;-63
2022/04/22 00:04:22;;;;;;;12.70;8.93;;;;;;;;;;4877092;29;20033;-63
2022/04/22 00:06:48;;;;;;;15.63;8.38;;;;;;;;;;4876898;29;20478;-63
2022/04/22 00:09:14;;;;;;;14.10;8.80;;;;;;;;;;4877299;29;20506;-63
2022/04/22 00:11:40;;;;;;;15.38;9.18;;;;;;;;;;4876838;29;20036;-62
2022/04/22 00:14:06;;;;;;;17.75;9.25;;;;;;;;;;4878905;29;20060;-63
2022/04/22 00:16:32;;;;;;;14.35;9.30;;;;;;;;;;4880739;29;20040;-63
2022/04/22 00:18:59;;;;;;;13.65;8.70;;;;;;;;;;4880691;29;20374;-65
2022/04/22 00:21:26;;;;;;;14.23;8.88;;;;;;;;;;4880440;29;20060;-63
2022/04/22 00:23:52;;;;;;;12.07;8.52;;;;;;;;;;4880422;29;20021;-62
2022/04/22 00:26:19;;;;;;;14.25;9.30;;;;;;;;;;4880103;29;20052;-63
2022/04/22 00:28:45;;;;;;;13.55;8.30;;;;;;;;;;4880694;29;20083;-63
2022/04/22 00:31:11;;;;;;;14.02;8.45;;;;;;;;;;4880103;29;20032;-64
2022/04/22 00:33:37;;;;;;;14.30;9.07;;;;;;;;;;4880298;29;20029;-64
2022/04/22 00:36:03;;;;;;;15.20;9.45;;;;;;;;;;4880076;29;20029;-63
2022/04/22 00:38:29;;;;;;;15.55;9.10;;;;;;;;;;4880216;29;20049;-63
2022/04/22 00:40:56;;;;;;;13.40;8.43;;;;;;;;;;4879709;29;20033;-62
2022/04/22 00:43:25;;;;;;;12.73;8.23;;;;;;;;;;4879964;29;20033;-62
2022/04/22 00:45:52;;;;;;;12.90;8.32;;;;;;;;;;4880027;29;20382;-62
2022/04/22 00:48:19;;;;;;;17.45;8.52;;;;;;;;;;4879833;29;20501;-61
2022/04/22 00:50:45;;;;;;;15.38;8.35;;;;;;;;;;4879967;29;20108;-61
2022/04/22 00:53:12;;;;;;;17.65;9.55;;;;;;;;;;4880039;29;20033;-61
2022/04/22 00:55:40;;;;;;;13.98;8.57;;;;;;;;;;4878283;29;20972;-65
2022/04/22 00:58:06;;;;;;;13.35;9.07;;;;;;;;;;4861323;29;20158;-63
2022/04/22 01:00:33;;;;;;;14.07;9.07;;;;;;;;;;4861298;29;20030;-61
2022/04/22 01:02:59;;;;;;;14.93;9.45;;;;;;;;;;4861632;29;20033;-62
2022/04/22 01:10:55;;;;;;;16.90;10.02;;;;;;;;;;4861408;29;20044;-62
2022/04/22 01:13:22;;;;;;;15.45;9.43;;;;;;;;;;4860915;29;20033;-62
2022/04/22 01:15:48;;;;;;;16.10;9.40;;;;;;;;;;4861108;29;20086;-62
2022/04/22 01:18:14;;;;;;;16.67;9.95;;;;;;;;;;4861267;29;20466;-62
2022/04/22 01:20:40;;;;;;;14.93;9.07;;;;;;;;;;4861229;29;20034;-62
2022/04/22 01:23:07;;;;;;;16.10;9.02;;;;;;;;;;4860900;29;20029;-61
2022/04/22 01:25:33;;;;;;;15.80;9.75;;;;;;;;;;4860639;29;20120;-62
2022/04/22 01:27:59;;;;;;;17.23;9.30;;;;;;;;;;4860803;29;20051;-61
2022/04/22 01:30:26;;;;;;;14.60;9.10;;;;;;;;;;4860993;29;20100;-64
2022/04/22 01:32:54;;;;;;;13.60;9.65;;;;;;;;;;4860860;29;20029;-62
2022/04/22 01:35:20;;;;;;;15.32;9.07;;;;;;;;;;4860766;29;20041;-65
2022/04/22 01:37:47;;;;;;;13.20;9.23;;;;;;;;;;4860505;29;20510;-63
2022/04/22 01:40:13;;;;;;;15.90;8.45;;;;;;;;;;4860500;29;20030;-63
2022/04/22 01:42:39;;;;;;;11.88;8.30;;;;;;;;;;4860588;29;20037;-62
2022/04/22 01:45:06;;;;;;;13.60;8.90;;;;;;;;;;4860369;29;20029;-62
2022/04/22 01:47:32;;;;;;;17.20;9.38;;;;;;;;;;4860652;29;20497;-62
2022/04/22 01:49:59;;;;;;;14.57;8.63;;;;;;;;;;4860226;29;20117;-61
2022/04/22 01:52:26;;;;;;;14.05;8.65;;;;;;;;;;4860392;29;20049;-61
2022/04/22 01:54:54;;;;;;;10.65;7.72;;;;;;;;;;4860272;29;20033;-62
2022/04/22 01:57:20;;;;;;;11.18;7.38;;;;;;;;;;4874474;29;20049;-61
2022/04/22 01:59:48;;;;;;;13.93;6.68;;;;;;;;;;4878707;29;20474;-61
2022/04/22 02:02:14;;;;;;;10.55;7.07;;;;;;;;;;4880248;29;20032;-62
2022/04/22 02:04:41;;;;;;;11.15;6.35;;;;;;;;;;4880353;29;20029;-61
2022/04/22 02:07:07;;;;;;;11.07;6.40;;;;;;;;;;4878711;29;20044;-63
2022/04/22 02:09:33;;;;;;;9.57;6.18;;;;;;;;;;4878621;29;20509;-61
2022/04/22 02:11:59;;;;;;;9.63;6.10;;;;;;;;;;4878346;29;20486;-62
2022/04/22 02:14:26;;;;;;;10.23;6.30;;;;;;;;;;4878243;29;20029;-66
2022/04/22 02:16:52;;;;;;;10.15;5.82;;;;;;;;;;4878295;29;20503;-64
2022/04/22 02:19:18;;;;;;;10.85;5.90;;;;;;;;;;4878349;29;20033;-61
2022/04/22 02:21:45;;;;;;;10.27;5.53;;;;;;;;;;4878390;29;20197;-64
2022/04/22 02:24:11;;;;;;;10.32;5.80;;;;;;;;;;4878284;29;20029;-62
2022/04/22 02:29:23;;;;;;;9.95;6.10;;;;;;;;;;4878408;29;20144;-62
2022/04/22 02:31:52;;;;;;;10.27;5.63;;;;;;;;;;4878268;29;20040;-62
2022/04/22 02:34:19;;;;;;;9.55;5.85;;;;;;;;;;4877690;29;20040;-62
2022/04/22 02:36:45;;;;;;;10.63;5.72;;;;;;;;;;4877218;29;20025;-63
2022/04/22 02:39:11;;;;;;;10.85;5.28;;;;;;;;;;4878194;29;20036;-62
2022/04/22 02:47:07;;;;;;;10.00;6.03;;;;;;;;;;4878254;29;20055;-61
2022/04/22 02:49:33;;;;;;;9.50;4.70;;;;;;;;;;4878019;29;20517;-63
2022/04/22 02:51:59;;;;;;;7.65;4.85;;;;;;;;;;4877986;29;20563;-62
